createdAt,value
2019-03-01T00:01:07.436Z,99324.31
2019-03-01T00:03:37.400Z,99314.00
2019-03-01T00:06:17.676Z,99314.28
2019-03-01T00:09:05.421Z,99326.58
2019-03-01T00:11:42.523Z,99314.00
2019-03-01T00:14:29.170Z,99312.78
2019-03-01T00:17:12.690Z,99305.76
2019-03-01T00:20:09.826Z,99310.50
2019-03-01T00:22:57.831Z,99307.98
2019-03-01T00:25:41.176Z,99314.95
2019-03-01T00:28:15.403Z,99306.95
2019-03-01T00:30:58.780Z,99303.94
2019-03-01T00:33:45.235Z,99299.30
2019-03-01T00:36:16.818Z,99297.72
2019-03-01T00:39:07.865Z,99283.87
2019-03-01T00:41:57.386Z,99286.53
2019-03-01T00:44:44.541Z,99293.42
2019-03-01T00:47:13.356Z,99295.09
2019-03-01T00:49:41.850Z,99287.84
2019-03-01T00:52:10.797Z,99287.32
2019-03-01T00:54:39.287Z,99282.84
2019-03-01T00:57:08.115Z,99285.37
2019-03-01T00:59:36.530Z,99276.80
2019-03-01T01:02:05.287Z,99263.29
2019-03-01T01:04:33.722Z,99269.94
2019-03-01T01:07:02.179Z,99265.34
2019-03-01T01:09:30.532Z,99265.23
2019-03-01T01:11:58.975Z,99258.72
2019-03-01T01:14:27.387Z,99259.22
2019-03-01T01:16:55.851Z,99254.63
2019-03-01T01:19:24.197Z,99261.25
2019-03-01T01:21:52.614Z,99255.38
2019-03-01T01:24:21.022Z,99247.17
2019-03-01T01:26:49.450Z,99247.92
2019-03-01T01:29:17.844Z,99245.66
2019-03-01T01:31:46.256Z,99244.13
2019-03-01T01:34:14.638Z,99240.80
2019-03-01T01:36:43.073Z,99234.47
2019-03-01T01:39:12.158Z,99240.45
2019-03-01T01:41:40.587Z,99238.88
2019-03-01T01:44:08.954Z,99226.19
2019-03-01T01:46:37.376Z,99222.77
2019-03-01T01:49:05.841Z,99212.77
2019-03-01T01:51:34.259Z,99215.58
2019-03-01T01:54:02.653Z,99208.67
2019-03-01T01:56:31.002Z,99207.73
2019-03-01T01:58:59.377Z,99197.73
2019-03-01T02:01:27.872Z,99200.20
2019-03-01T02:03:56.263Z,99201.35
2019-03-01T02:06:24.758Z,99200.27
2019-03-01T02:08:53.214Z,99188.97
2019-03-01T02:11:21.832Z,99189.72
2019-03-01T02:13:50.219Z,99186.63
2019-03-01T02:16:18.585Z,99193.26
2019-03-01T02:18:46.982Z,99178.70
2019-03-01T02:21:15.328Z,99168.70
2019-03-01T02:23:43.725Z,99166.01
2019-03-01T02:26:12.148Z,99168.40
2019-03-01T02:28:40.596Z,99169.79
2019-03-01T02:31:10.786Z,99165.42
2019-03-01T02:33:39.174Z,99167.51
2019-03-01T02:36:07.592Z,99162.16
2019-03-01T02:38:35.981Z,99154.75
2019-03-01T02:41:04.357Z,99149.33
2019-03-01T02:43:32.775Z,99145.80
2019-03-01T02:46:01.161Z,99146.24
2019-03-01T02:48:29.504Z,99141.79
2019-03-01T02:50:57.893Z,99140.17
2019-03-01T02:53:26.242Z,99129.88
2019-03-01T02:55:54.624Z,99126.78
2019-03-01T02:58:22.981Z,99119.83
2019-03-01T03:00:51.618Z,99120.16
2019-03-01T03:03:20.121Z,99115.23
2019-03-01T03:05:53.047Z,99108.93
2019-03-01T03:08:21.576Z,99108.45
2019-03-01T03:10:50.338Z,99095.38
2019-03-01T03:13:18.840Z,99094.32
2019-03-01T03:15:48.872Z,99095.63
2019-03-01T03:18:17.304Z,99089.00
2019-03-01T03:20:45.698Z,99087.36
2019-03-01T03:23:14.130Z,99083.81
2019-03-01T03:25:42.529Z,99083.34
2019-03-01T03:28:10.883Z,99082.78
2019-03-01T03:30:39.436Z,99078.59
2019-03-01T03:33:07.929Z,99072.39
2019-03-01T03:35:36.319Z,99076.31
2019-03-01T03:38:04.727Z,99078.84
2019-03-01T03:40:33.172Z,99074.61
2019-03-01T03:43:01.518Z,99072.83
2019-03-01T03:45:29.896Z,99069.72
2019-03-01T03:47:58.316Z,99060.96
2019-03-01T03:50:26.690Z,99066.44
2019-03-01T03:52:55.045Z,99064.47
2019-03-01T03:55:23.439Z,99061.08
2019-03-01T03:57:51.786Z,99053.00
2019-03-01T04:00:22.450Z,99059.38
2019-03-01T04:02:50.880Z,99051.10
2019-03-01T04:05:19.372Z,99056.19
2019-03-01T04:07:47.792Z,99058.20
2019-03-01T04:10:16.217Z,99059.34
2019-03-01T04:12:44.603Z,99055.75
2019-03-01T04:15:15.578Z,99065.48
2019-03-01T04:17:45.141Z,99057.81
2019-03-01T04:20:18.541Z,99051.27
2019-03-01T04:22:46.990Z,99060.56
2019-03-01T04:25:15.487Z,99050.13
2019-03-01T04:27:43.958Z,99047.44
2019-03-01T04:30:18.955Z,99053.89
2019-03-01T04:32:47.335Z,99044.91
2019-03-01T04:35:15.755Z,99049.69
2019-03-01T04:37:44.139Z,99047.60
2019-03-01T04:40:15.586Z,99053.12
2019-03-01T04:42:44.043Z,99044.05
2019-03-01T04:45:14.304Z,99043.19
2019-03-01T04:47:42.689Z,99040.37
2019-03-01T04:50:11.971Z,99036.62
2019-03-01T04:52:40.785Z,99035.90
2019-03-01T04:55:15.546Z,99031.95
2019-03-01T04:57:44.003Z,99030.42
2019-03-01T05:00:20.321Z,99025.25
2019-03-01T05:02:48.705Z,99023.55
2019-03-01T05:05:17.688Z,99023.57
2019-03-01T05:07:46.278Z,99015.15
2019-03-01T05:10:15.665Z,99018.72
2019-03-01T05:12:44.288Z,99013.84
2019-03-01T05:15:15.247Z,99016.27
2019-03-01T05:17:43.865Z,99016.95
2019-03-01T05:20:12.446Z,99021.43
2019-03-01T05:22:40.828Z,99016.63
2019-03-01T05:25:10.580Z,99010.37
2019-03-01T05:27:39.039Z,99018.66
2019-03-01T05:30:15.671Z,99014.71
2019-03-01T05:32:44.123Z,99014.82
2019-03-01T05:35:14.486Z,99016.19
2019-03-01T05:37:43.005Z,99018.13
2019-03-01T05:40:13.858Z,99014.48
2019-03-01T05:42:42.277Z,99013.73
2019-03-01T05:45:16.397Z,99010.84
2019-03-01T05:47:44.750Z,99007.17
2019-03-01T05:50:16.152Z,99012.88
2019-03-01T05:52:44.572Z,99013.28
2019-03-01T05:55:13.897Z,99006.17
2019-03-01T05:58:18.749Z,99008.69
2019-03-01T06:00:47.528Z,99013.98
2019-03-01T06:03:50.822Z,99015.80
2019-03-01T06:06:28.154Z,99025.94
2019-03-01T06:09:02.757Z,99022.41
2019-03-01T06:11:36.956Z,99018.27
2019-03-01T06:14:23.485Z,99018.06
2019-03-01T06:16:55.007Z,99025.45
2019-03-01T06:19:29.118Z,99024.20
2019-03-01T06:22:20.154Z,99025.93
2019-03-01T06:25:00.392Z,99022.42
2019-03-01T06:27:43.448Z,99023.73
2019-03-01T06:30:34.853Z,99020.88
2019-03-01T06:33:25.241Z,99018.98
2019-03-01T06:36:03.145Z,99018.37
2019-03-01T06:38:44.974Z,99012.77
2019-03-01T06:41:26.825Z,99019.17
2019-03-01T06:44:16.166Z,99013.08
2019-03-01T06:47:11.828Z,99016.80
2019-03-01T06:49:59.540Z,99010.50
2019-03-01T06:52:27.902Z,99013.47
2019-03-01T06:54:56.290Z,99013.47
2019-03-01T06:57:24.639Z,99010.70
2019-03-01T06:59:53.039Z,99014.98
2019-03-01T07:02:23.358Z,99007.66
2019-03-01T07:04:51.828Z,99017.95
2019-03-01T07:07:20.264Z,99021.15
2019-03-01T07:09:48.616Z,99019.41
2019-03-01T07:12:16.990Z,99021.55
2019-03-01T07:14:45.331Z,99021.55
2019-03-01T07:17:13.723Z,99020.79
2019-03-01T07:19:42.089Z,99027.56
2019-03-01T07:22:10.476Z,99029.34
2019-03-01T07:24:38.814Z,99024.75
2019-03-01T07:27:07.273Z,99032.19
2019-03-01T07:29:35.694Z,99038.37
2019-03-01T07:32:04.315Z,99042.80
2019-03-01T07:34:32.670Z,99044.77
2019-03-01T07:37:01.367Z,99039.23
2019-03-01T07:39:29.714Z,99042.00
2019-03-01T07:41:58.102Z,99045.92
2019-03-01T07:44:27.040Z,99048.30
2019-03-01T07:46:55.666Z,99051.31
2019-03-01T07:49:24.157Z,99047.63
2019-03-01T07:51:52.737Z,99054.44
2019-03-01T07:54:22.395Z,99055.46
2019-03-01T07:56:50.841Z,99058.11
2019-03-01T07:59:19.194Z,99058.31
2019-03-01T08:01:47.586Z,99061.08
2019-03-01T08:04:15.941Z,99060.88
2019-03-01T08:06:45.623Z,99061.16
2019-03-01T08:09:14.529Z,99068.28
2019-03-01T08:11:42.991Z,99067.18
2019-03-01T08:14:11.406Z,99070.61
2019-03-01T08:16:39.885Z,99072.67
2019-03-01T08:19:08.366Z,99074.10
2019-03-01T08:21:36.786Z,99077.31
2019-03-01T08:24:07.616Z,99084.13
2019-03-01T08:26:37.463Z,99080.86
2019-03-01T08:29:05.914Z,99077.84
2019-03-01T08:31:36.032Z,99084.78
2019-03-01T08:34:04.792Z,99081.86
2019-03-01T08:36:34.663Z,99073.48
2019-03-01T08:39:05.836Z,99084.44
2019-03-01T08:41:34.868Z,99081.16
2019-03-01T08:44:03.543Z,99079.79
2019-03-01T08:46:32.016Z,99092.06
2019-03-01T08:49:01.646Z,99092.77
2019-03-01T08:51:33.491Z,99093.64
2019-03-01T08:54:02.455Z,99101.93
2019-03-01T08:56:30.823Z,99096.81
2019-03-01T08:59:00.820Z,99105.89
2019-03-01T09:01:31.608Z,99104.42
2019-03-01T09:04:09.052Z,99109.61
2019-03-01T09:06:37.413Z,99116.63
2019-03-01T09:09:08.640Z,99117.10
2019-03-01T09:11:37.364Z,99111.70
2019-03-01T09:14:05.841Z,99123.84
2019-03-01T09:16:34.487Z,99123.27
2019-03-01T09:19:03.040Z,99123.36
2019-03-01T09:21:31.477Z,99124.56
2019-03-01T09:24:00.415Z,99129.54
2019-03-01T09:26:28.838Z,99124.39
2019-03-01T09:28:57.320Z,99136.25
2019-03-01T09:31:25.715Z,99137.00
2019-03-01T09:33:56.535Z,99145.99
2019-03-01T09:36:29.136Z,99138.03
2019-03-01T09:38:57.721Z,99145.71
2019-03-01T09:41:26.074Z,99145.27
2019-03-01T09:43:54.451Z,99150.30
2019-03-01T09:46:24.325Z,99161.72
2019-03-01T09:48:53.302Z,99155.45
2019-03-01T09:51:21.811Z,99169.95
2019-03-01T09:53:50.404Z,99166.83
2019-03-01T09:56:18.922Z,99180.42
2019-03-01T09:58:47.471Z,99171.77
2019-03-01T10:01:18.639Z,99179.95
2019-03-01T10:03:47.159Z,99180.64
2019-03-01T10:06:15.644Z,99188.11
2019-03-01T10:08:44.165Z,99190.50
2019-03-01T10:11:13.080Z,99191.81
2019-03-01T10:13:41.449Z,99190.14
2019-03-01T10:16:09.832Z,99191.62
2019-03-01T10:18:38.357Z,99189.00
2019-03-01T10:21:06.917Z,99195.56
2019-03-01T10:23:35.321Z,99196.13
2019-03-01T10:26:03.787Z,99205.14
2019-03-01T10:28:32.516Z,99198.91
2019-03-01T10:31:00.964Z,99204.00
2019-03-01T10:33:29.382Z,99197.94
2019-03-01T10:35:57.829Z,99201.78
2019-03-01T10:38:26.175Z,99211.25
2019-03-01T10:40:54.577Z,99204.78
2019-03-01T10:43:23.549Z,99211.05
2019-03-01T10:45:52.219Z,99220.83
2019-03-01T10:48:20.627Z,99215.70
2019-03-01T10:50:49.489Z,99211.86
2019-03-01T10:53:17.907Z,99215.51
2019-03-01T10:55:46.282Z,99225.34
2019-03-01T10:58:14.743Z,99234.50
2019-03-01T11:00:43.138Z,99225.02
2019-03-01T11:03:11.488Z,99242.52
2019-03-01T11:08:11.165Z,99235.80
2019-03-01T11:10:40.788Z,99239.56
2019-03-01T11:13:15.035Z,99237.70
2019-03-01T11:15:43.484Z,99240.70
2019-03-01T11:18:12.443Z,99245.44
2019-03-01T11:20:41.189Z,99242.55
2019-03-01T11:23:09.893Z,99249.23
2019-03-01T11:25:38.578Z,99252.27
2019-03-01T11:28:07.042Z,99252.06
2019-03-01T11:30:37.002Z,99251.56
2019-03-01T11:33:05.535Z,99256.28
2019-03-01T11:35:35.997Z,99268.09
2019-03-01T11:38:04.707Z,99265.13
2019-03-01T11:40:36.244Z,99265.22
2019-03-01T11:43:05.431Z,99269.89
2019-03-01T11:45:34.029Z,99270.09
2019-03-01T11:48:04.138Z,99271.16
2019-03-01T11:50:32.557Z,99271.55
2019-03-01T11:53:01.107Z,99269.22
2019-03-01T11:55:29.713Z,99266.52
2019-03-01T11:57:58.133Z,99272.55
2019-03-01T12:00:27.797Z,99274.70
2019-03-01T12:02:56.822Z,99276.03
2019-03-01T12:05:25.334Z,99272.11
2019-03-01T12:07:53.915Z,99283.06
2019-03-01T12:10:30.288Z,99282.02
2019-03-01T12:12:58.678Z,99283.09
2019-03-01T12:15:28.771Z,99288.09
2019-03-01T12:17:57.238Z,99282.38
2019-03-01T12:20:36.205Z,99285.27
2019-03-01T12:23:04.824Z,99284.77
2019-03-01T12:25:33.675Z,99286.31
2019-03-01T12:28:02.178Z,99287.38
2019-03-01T12:30:30.613Z,99294.03
2019-03-01T12:32:59.067Z,99302.56
2019-03-01T12:35:27.480Z,99293.24
2019-03-01T12:37:55.874Z,99292.30
2019-03-01T12:40:28.382Z,99295.19
2019-03-01T12:42:56.932Z,99295.55
2019-03-01T12:45:26.176Z,99285.84
2019-03-01T12:47:54.660Z,99289.16
2019-03-01T12:50:23.544Z,99295.11
2019-03-01T12:52:55.365Z,99289.16
2019-03-01T12:55:33.764Z,99296.66
2019-03-01T12:58:19.046Z,99304.34
2019-03-01T13:00:39.179Z,99303.03
2019-03-01T13:03:09.747Z,99300.81
2019-03-01T13:05:38.767Z,99305.97
2019-03-01T13:08:12.607Z,99311.36
2019-03-01T13:10:41.211Z,99315.45
2019-03-01T13:13:10.184Z,99313.70
2019-03-01T13:15:38.809Z,99311.38
2019-03-01T13:18:14.905Z,99304.77
2019-03-01T13:20:41.725Z,99318.28
2019-03-01T13:23:10.224Z,99319.20
2019-03-01T13:25:39.066Z,99320.56
2019-03-01T13:28:07.776Z,99323.96
2019-03-01T13:30:36.770Z,99326.13
2019-03-01T13:33:05.808Z,99324.56
2019-03-01T13:35:34.702Z,99323.67
2019-03-01T13:38:03.991Z,99332.96
2019-03-01T13:40:33.903Z,99331.97
2019-03-01T13:43:07.878Z,99336.20
2019-03-01T13:45:47.456Z,99342.59
2019-03-01T13:48:21.302Z,99349.52
2019-03-01T13:50:56.504Z,99345.56
2019-03-01T13:53:33.342Z,99343.66
2019-03-01T13:58:59.510Z,99338.37
2019-03-01T14:01:30.811Z,99341.91
2019-03-01T14:04:03.152Z,99343.39
2019-03-01T14:06:34.709Z,99346.77
2019-03-01T14:09:03.776Z,99350.45
2019-03-01T14:11:32.538Z,99349.69
2019-03-01T14:14:06.778Z,99344.38
2019-03-01T14:16:35.717Z,99353.67
2019-03-01T14:19:04.754Z,99356.72
2019-03-01T14:21:36.056Z,99360.27
2019-03-01T14:24:06.079Z,99362.59
2019-03-01T14:26:37.188Z,99368.69
2019-03-01T14:29:05.553Z,99365.38
2019-03-01T14:31:33.943Z,99368.75
2019-03-01T14:34:02.308Z,99362.23
2019-03-01T14:36:30.695Z,99359.97
2019-03-01T14:38:59.059Z,99367.20
2019-03-01T14:41:27.475Z,99365.19
2019-03-01T14:43:58.939Z,99369.66
2019-03-01T14:46:26.252Z,99374.59
2019-03-01T14:48:54.605Z,99379.05
2019-03-01T14:51:23.056Z,99380.75
2019-03-01T14:53:51.575Z,99387.28
2019-03-01T14:56:23.722Z,99393.52
2019-03-01T14:59:16.645Z,99392.59
2019-03-01T15:01:53.480Z,99393.53
2019-03-01T15:04:21.909Z,99395.52
2019-03-01T15:06:51.394Z,99402.45
2019-03-01T15:09:21.169Z,99413.74
2019-03-01T15:11:49.649Z,99416.62
2019-03-01T15:14:18.006Z,99416.62
2019-03-01T15:16:46.538Z,99424.20
2019-03-01T15:19:14.969Z,99420.84
2019-03-01T15:21:43.432Z,99424.36
2019-03-01T15:24:11.786Z,99421.06
2019-03-01T15:26:40.265Z,99424.58
2019-03-01T15:29:08.721Z,99427.59
2019-03-01T15:31:37.111Z,99433.15
2019-03-01T15:34:05.541Z,99427.98
2019-03-01T15:36:34.012Z,99434.61
2019-03-01T15:39:03.433Z,99441.44
2019-03-01T15:41:31.825Z,99443.42
2019-03-01T15:44:00.246Z,99443.72
2019-03-01T15:46:28.668Z,99439.66
2019-03-01T15:48:58.059Z,99433.27
2019-03-01T15:51:26.647Z,99433.27
2019-03-01T15:53:57.686Z,99439.26
2019-03-01T15:56:25.158Z,99442.13
2019-03-01T15:58:53.616Z,99441.11
2019-03-01T16:01:22.151Z,99442.13
2019-03-01T16:03:50.637Z,99447.20
2019-03-01T16:06:22.198Z,99444.73
2019-03-01T16:08:49.184Z,99441.29
2019-03-01T16:11:17.544Z,99451.42
2019-03-01T16:13:49.015Z,99449.06
2019-03-01T16:16:16.151Z,99447.57
2019-03-01T16:18:44.535Z,99451.34
2019-03-01T16:21:12.956Z,99460.17
2019-03-01T16:23:42.149Z,99460.78
2019-03-01T16:26:10.576Z,99462.75
2019-03-01T16:28:39.109Z,99458.68
2019-03-01T16:31:07.555Z,99460.83
2019-03-01T16:33:36.008Z,99465.11
2019-03-01T16:36:06.189Z,99465.03
2019-03-01T16:38:40.949Z,99462.78
2019-03-01T16:41:07.453Z,99463.88
2019-03-01T16:43:35.073Z,99470.55
2019-03-01T16:46:03.668Z,99464.02
2019-03-01T16:48:32.124Z,99469.42
2019-03-01T16:51:00.605Z,99463.17
2019-03-01T16:53:30.296Z,99476.31
2019-03-01T16:56:03.462Z,99481.28
2019-03-01T16:58:32.983Z,99486.15
2019-03-01T17:01:02.175Z,99496.05
2019-03-01T17:03:31.720Z,99498.83
2019-03-01T17:06:00.579Z,99496.33
2019-03-01T17:08:29.044Z,99496.88
2019-03-01T17:10:57.641Z,99507.21
2019-03-01T17:13:27.097Z,99500.73
2019-03-01T17:15:56.179Z,99504.09
2019-03-01T17:18:24.665Z,99514.77
2019-03-01T17:20:53.023Z,99513.37
2019-03-01T17:23:21.661Z,99513.77
2019-03-01T17:25:50.047Z,99513.14
2019-03-01T17:28:22.702Z,99508.16
2019-03-01T17:30:50.836Z,99522.78
2019-03-01T17:33:18.816Z,99528.66
2019-03-01T17:35:47.282Z,99517.83
2019-03-01T17:38:15.802Z,99525.27
2019-03-01T17:40:44.216Z,99530.36
2019-03-01T17:43:12.565Z,99529.19
2019-03-01T17:45:41.028Z,99534.55
2019-03-01T17:48:09.619Z,99532.01
2019-03-01T17:50:38.009Z,99536.33
2019-03-01T17:53:09.675Z,99541.42
2019-03-01T17:55:38.441Z,99542.22
2019-03-01T17:58:08.898Z,99545.54
2019-03-01T18:00:39.141Z,99548.16
2019-03-01T18:03:09.318Z,99554.04
2019-03-01T18:05:40.644Z,99563.84
2019-03-01T18:08:08.889Z,99567.02
2019-03-01T18:10:37.470Z,99568.70
2019-03-01T18:13:06.081Z,99572.03
2019-03-01T18:15:34.539Z,99565.45
2019-03-01T18:18:03.392Z,99573.56
2019-03-01T18:20:34.036Z,99583.07
2019-03-01T18:23:03.178Z,99588.48
2019-03-01T18:25:32.065Z,99588.30
2019-03-01T18:28:00.836Z,99591.17
2019-03-01T18:30:30.964Z,99596.91
2019-03-01T18:32:59.576Z,99594.94
2019-03-01T18:35:28.906Z,99600.52
2019-03-01T18:37:57.339Z,99600.05
2019-03-01T18:40:26.080Z,99597.50
2019-03-01T18:42:54.709Z,99591.91
2019-03-01T18:45:24.528Z,99605.74
2019-03-01T18:47:53.457Z,99598.63
2019-03-01T18:50:33.173Z,99601.05
2019-03-01T18:53:04.155Z,99604.82
2019-03-01T18:55:34.417Z,99605.16
2019-03-01T18:58:03.888Z,99614.34
2019-03-01T19:00:42.506Z,99606.39
2019-03-01T19:03:11.160Z,99607.52
2019-03-01T19:05:41.166Z,99605.27
2019-03-01T19:08:10.405Z,99611.80
2019-03-01T19:10:38.997Z,99614.22
2019-03-01T19:13:08.083Z,99621.52
2019-03-01T19:15:37.090Z,99622.25
2019-03-01T19:18:06.223Z,99624.73
2019-03-01T19:20:41.445Z,99624.02
2019-03-01T19:23:09.756Z,99624.54
2019-03-01T19:25:38.423Z,99631.58
2019-03-01T19:28:07.673Z,99633.22
2019-03-01T19:30:36.610Z,99638.56
2019-03-01T19:33:06.540Z,99633.41
2019-03-01T19:35:35.390Z,99639.86
2019-03-01T19:38:04.406Z,99640.14
2019-03-01T19:40:32.975Z,99636.59
2019-03-01T19:43:01.842Z,99641.84
2019-03-01T19:45:30.749Z,99638.05
2019-03-01T19:48:03.286Z,99642.61
2019-03-01T19:50:30.443Z,99643.92
2019-03-01T19:52:59.744Z,99638.70
2019-03-01T19:55:29.917Z,99644.98
2019-03-01T19:57:59.253Z,99644.32
2019-03-01T20:00:33.215Z,99644.86
2019-03-01T20:03:01.710Z,99643.61
2019-03-01T20:05:35.203Z,99645.64
2019-03-01T20:08:07.076Z,99653.13
2019-03-01T20:10:36.963Z,99663.39
2019-03-01T20:13:05.621Z,99665.20
2019-03-01T20:15:34.066Z,99669.73
2019-03-01T20:18:02.594Z,99676.20
2019-03-01T20:20:33.403Z,99672.40
2019-03-01T20:23:03.211Z,99674.89
2019-03-01T20:25:31.794Z,99677.16
2019-03-01T20:28:00.603Z,99674.36
2019-03-01T20:30:32.750Z,99676.51
2019-03-01T20:33:01.513Z,99669.98
2019-03-01T20:35:32.521Z,99671.72
2019-03-01T20:38:04.257Z,99674.33
2019-03-01T20:40:31.769Z,99670.94
2019-03-01T20:43:06.377Z,99677.16
2019-03-01T20:45:34.844Z,99687.66
2019-03-01T20:48:12.386Z,99687.50
2019-03-01T20:50:40.936Z,99687.55
2019-03-01T20:53:10.075Z,99690.11
2019-03-01T20:55:39.542Z,99688.61
2019-03-01T20:58:08.091Z,99689.25
2019-03-01T21:00:36.782Z,99687.41
2019-03-01T21:03:05.324Z,99695.03
2019-03-01T21:05:34.248Z,99682.53
2019-03-01T21:08:05.602Z,99682.59
2019-03-01T21:10:34.743Z,99689.00
2019-03-01T21:13:03.444Z,99695.33
2019-03-01T21:15:34.575Z,99698.80
2019-03-01T21:18:04.276Z,99699.70
2019-03-01T21:20:33.081Z,99707.27
2019-03-01T21:23:01.518Z,99698.34
2019-03-01T21:25:30.813Z,99698.05
2019-03-01T21:28:01.940Z,99703.23
2019-03-01T21:30:32.041Z,99705.27
2019-03-01T21:33:03.234Z,99707.03
2019-03-01T21:35:33.061Z,99703.06
2019-03-01T21:38:02.944Z,99695.06
2019-03-01T21:40:34.661Z,99696.94
2019-03-01T21:43:05.418Z,99698.59
2019-03-01T21:45:34.221Z,99699.08
2019-03-01T21:48:02.984Z,99693.49
2019-03-01T21:50:31.572Z,99695.38
2019-03-01T21:53:01.775Z,99692.48
2019-03-01T21:55:30.569Z,99692.16
2019-03-01T21:58:03.414Z,99690.57
2019-03-01T22:00:34.875Z,99690.39
2019-03-01T22:03:04.088Z,99688.75
2019-03-01T22:05:33.150Z,99687.32
2019-03-01T22:08:02.359Z,99682.30
2019-03-01T22:10:35.689Z,99688.05
2019-03-01T22:13:03.482Z,99683.90
2019-03-01T22:15:31.868Z,99687.98
2019-03-01T22:18:00.217Z,99687.20
2019-03-01T22:20:28.742Z,99685.84
2019-03-01T22:22:59.206Z,99683.23
2019-03-01T22:25:28.328Z,99689.81
2019-03-01T22:28:01.128Z,99699.73
2019-03-01T22:30:30.600Z,99701.93
2019-03-01T22:32:59.197Z,99699.46
2019-03-01T22:35:28.930Z,99693.48
2019-03-01T22:38:00.970Z,99702.92
2019-03-01T22:40:29.839Z,99696.92
2019-03-01T22:42:58.469Z,99694.63
2019-03-01T22:45:29.984Z,99696.80
2019-03-01T22:47:58.732Z,99689.67
2019-03-01T22:50:27.425Z,99693.47
2019-03-01T22:52:56.679Z,99695.63
2019-03-01T22:55:25.431Z,99698.86
2019-03-01T22:57:57.799Z,99706.83
2019-03-01T23:00:49.678Z,99699.76
2019-03-01T23:03:20.255Z,99690.48
2019-03-01T23:05:49.047Z,99680.14
2019-03-01T23:08:18.313Z,99675.41
2019-03-01T23:10:47.027Z,99676.42
2019-03-01T23:13:16.874Z,99685.23
2019-03-01T23:15:45.940Z,99682.22
2019-03-01T23:18:14.925Z,99681.55
2019-03-01T23:20:44.987Z,99672.31
2019-03-01T23:23:14.095Z,99664.98
2019-03-01T23:25:42.790Z,99675.17
2019-03-01T23:28:14.181Z,99668.77
2019-03-01T23:30:43.621Z,99663.50
2019-03-01T23:33:12.855Z,99671.13
2019-03-01T23:35:41.448Z,99673.20
2019-03-01T23:38:11.476Z,99673.27
2019-03-01T23:40:40.300Z,99675.03
2019-03-01T23:43:09.140Z,99659.27
2019-03-01T23:45:38.126Z,99645.41
2019-03-01T23:48:06.988Z,99647.00
2019-03-01T23:50:35.782Z,99641.62
2019-03-01T23:53:04.289Z,99638.39
2019-03-01T23:55:33.068Z,99648.08
2019-03-01T23:58:06.088Z,99639.44
